createdAt,value
2019-03-02T01:11:48.629Z,5.90
2019-03-02T01:16:51.771Z,6.00
2019-03-02T01:24:28.252Z,6.00
2019-03-02T01:27:00.920Z,6.00
2019-03-02T01:34:30.560Z,6.00
2019-03-02T01:47:02.885Z,6.00
2019-03-02T01:49:33.488Z,5.90
2019-03-02T01:54:33.579Z,5.80
2019-03-02T01:59:35.382Z,5.80
2019-03-02T02:02:06.058Z,5.80
2019-03-02T02:12:25.398Z,5.90
2019-03-02T02:17:28.564Z,5.90
2019-03-02T02:19:58.774Z,5.80
2019-03-02T02:22:29.901Z,5.90
2019-03-02T02:27:43.274Z,5.80
2019-03-02T02:30:26.673Z,5.80
2019-03-02T02:35:39.514Z,5.80
2019-03-02T02:40:41.323Z,5.80
2019-03-02T02:43:11.516Z,5.80
2019-03-02T02:55:56.920Z,5.70
2019-03-02T02:58:27.228Z,5.70
2019-03-02T03:11:30.888Z,5.60
2019-03-02T03:14:01.010Z,5.60
2019-03-02T03:16:32.031Z,5.60
2019-03-02T03:19:02.195Z,5.60
2019-03-02T03:21:39.079Z,5.50
2019-03-02T03:24:13.166Z,5.40
2019-03-02T03:26:45.272Z,5.40
2019-03-02T03:29:17.379Z,5.40
2019-03-02T03:31:48.442Z,5.40
2019-03-02T03:34:29.982Z,5.40
2019-03-02T03:42:04.039Z,5.40
2019-03-02T03:47:05.840Z,5.40
2019-03-02T03:52:09.322Z,5.40
2019-03-02T03:57:11.586Z,5.40
2019-03-02T04:07:13.942Z,5.20
2019-03-02T04:17:17.885Z,4.90
2019-03-02T04:19:48.018Z,4.90
2019-03-02T04:35:09.017Z,4.70
2019-03-02T04:37:39.156Z,4.70
2019-03-02T04:40:11.081Z,4.70
2019-03-02T04:52:52.304Z,4.70
2019-03-02T04:57:53.094Z,4.60
2019-03-02T05:00:23.449Z,4.60
2019-03-02T05:07:56.628Z,4.60
2019-03-02T05:10:29.806Z,4.60
2019-03-02T05:12:59.962Z,4.60
2019-03-02T05:15:31.104Z,4.60
2019-03-02T05:23:03.657Z,4.60
2019-03-02T05:28:07.352Z,4.60
2019-03-02T05:30:36.263Z,4.60
2019-03-02T05:33:16.523Z,4.50
2019-03-02T05:35:47.735Z,4.60
2019-03-02T05:38:19.345Z,4.60
2019-03-02T05:40:49.712Z,4.60
2019-03-02T05:43:19.824Z,4.50
2019-03-02T05:45:49.954Z,4.50
2019-03-02T05:50:49.840Z,4.50
2019-03-02T05:53:19.938Z,4.60
2019-03-02T05:55:53.696Z,4.60
2019-03-02T06:01:02.426Z,4.60
2019-03-02T06:11:08.289Z,4.50
2019-03-02T06:13:38.396Z,4.50
2019-03-02T06:16:08.624Z,4.50
2019-03-02T06:21:11.938Z,4.50
2019-03-02T06:23:42.116Z,4.50
2019-03-02T06:26:14.316Z,4.50
2019-03-02T06:28:44.428Z,4.50
2019-03-02T06:31:19.185Z,4.50
2019-03-02T06:33:49.284Z,4.50
2019-03-02T06:36:20.316Z,4.40
2019-03-02T06:38:51.366Z,4.50
2019-03-02T06:41:22.369Z,4.40
2019-03-02T06:43:55.052Z,4.40
2019-03-02T06:46:25.257Z,4.50
2019-03-02T06:48:55.366Z,4.50
2019-03-02T06:51:25.475Z,4.50
2019-03-02T06:53:55.594Z,4.40
2019-03-02T06:58:56.345Z,4.40
2019-03-02T07:01:26.464Z,4.40
2019-03-02T07:03:57.590Z,4.40
2019-03-02T07:09:09.536Z,4.50
2019-03-02T07:16:45.090Z,4.50
2019-03-02T07:24:30.914Z,4.50
2019-03-02T07:27:07.242Z,4.50
2019-03-02T07:29:39.321Z,4.60
2019-03-02T07:32:10.343Z,4.60
2019-03-02T07:37:17.573Z,4.70
2019-03-02T07:42:24.252Z,4.80
2019-03-02T07:44:58.558Z,4.90
2019-03-02T07:50:02.063Z,4.90
2019-03-02T07:55:02.918Z,4.90
2019-03-02T08:00:08.978Z,4.90
2019-03-02T08:05:10.904Z,5.10
2019-03-02T08:07:46.597Z,5.10
2019-03-02T08:10:22.796Z,5.00
2019-03-02T08:12:53.966Z,5.10
2019-03-02T08:18:01.721Z,5.10
2019-03-02T08:25:34.505Z,5.00
2019-03-02T08:30:37.107Z,5.10
2019-03-02T08:33:14.066Z,5.10
2019-03-02T08:35:48.200Z,5.20
2019-03-02T08:38:19.893Z,5.10
2019-03-02T08:40:56.377Z,5.10
2019-03-02T08:43:25.865Z,5.10
2019-03-02T08:56:02.300Z,5.20
2019-03-02T09:16:11.661Z,5.50
2019-03-02T09:21:13.674Z,5.60
2019-03-02T09:23:45.808Z,5.60
2019-03-02T09:26:15.919Z,5.60
2019-03-02T09:28:46.029Z,5.80
2019-03-02T09:33:47.722Z,5.90
2019-03-02T09:36:17.816Z,6.00
2019-03-02T09:38:54.208Z,6.20
2019-03-02T09:41:32.957Z,6.20
2019-03-02T09:49:11.686Z,6.70
2019-03-02T09:51:44.831Z,6.60
2019-03-02T09:54:22.559Z,6.70
2019-03-02T09:56:52.773Z,6.80
2019-03-02T10:06:53.670Z,7.30
2019-03-02T10:17:00.316Z,6.90
2019-03-02T10:27:09.211Z,6.50
2019-03-02T10:29:40.294Z,6.50
2019-03-02T10:37:22.342Z,6.50
2019-03-02T10:47:30.257Z,6.90
2019-03-02T10:52:41.198Z,7.00
2019-03-02T10:55:15.350Z,7.10
2019-03-02T11:00:21.190Z,7.20
2019-03-02T11:02:52.039Z,7.10
2019-03-02T11:08:21.869Z,7.00
2019-03-02T11:10:53.271Z,7.00
2019-03-02T11:13:33.176Z,7.00
2019-03-02T11:16:22.322Z,7.10
2019-03-02T11:18:56.719Z,7.40
2019-03-02T11:24:16.037Z,7.40
2019-03-02T11:35:10.389Z,7.90
2019-03-02T11:43:36.892Z,7.50
2019-03-02T11:46:12.049Z,7.50
2019-03-02T11:54:02.672Z,7.20
2019-03-02T12:04:41.696Z,7.10
2019-03-02T12:12:44.413Z,6.90
2019-03-02T12:15:17.221Z,6.90
2019-03-02T12:20:55.886Z,6.90
2019-03-02T12:33:49.481Z,7.60
2019-03-02T12:36:25.272Z,7.80
2019-03-02T12:44:21.455Z,8.30
2019-03-02T12:52:28.510Z,8.70
2019-03-02T13:00:29.560Z,8.30
2019-03-02T13:03:02.204Z,8.10
2019-03-02T13:08:22.946Z,8.10
2019-03-02T13:13:27.217Z,8.00
2019-03-02T13:15:58.970Z,8.00
2019-03-02T13:21:15.287Z,8.00
2019-03-02T13:32:01.497Z,7.90
2019-03-02T13:37:21.311Z,8.10
2019-03-02T13:47:51.797Z,7.90
2019-03-02T13:50:41.372Z,7.80
2019-03-02T13:53:22.157Z,7.70
2019-03-02T13:56:16.229Z,7.60
2019-03-02T14:07:01.579Z,7.60
2019-03-02T14:09:36.051Z,7.60
2019-03-02T14:14:56.168Z,7.80
2019-03-02T14:17:35.366Z,7.90
2019-03-02T14:22:58.351Z,8.10
2019-03-02T14:25:30.097Z,8.10
2019-03-02T14:28:12.785Z,8.00
2019-03-02T14:33:55.889Z,7.90
2019-03-02T14:39:21.304Z,7.70
2019-03-02T14:44:58.730Z,7.60
2019-03-02T14:52:40.302Z,7.50
2019-03-02T14:55:13.302Z,7.30
2019-03-02T14:57:51.029Z,7.30
2019-03-02T15:10:55.853Z,6.90
2019-03-02T15:13:37.896Z,6.80
2019-03-02T15:21:34.794Z,6.70
2019-03-02T15:24:11.340Z,6.70
2019-03-02T15:26:55.158Z,6.70
2019-03-02T15:32:00.964Z,6.80
2019-03-02T15:34:49.411Z,6.70
2019-03-02T15:39:53.490Z,6.90
2019-03-02T15:48:11.152Z,7.00
2019-03-02T15:50:42.922Z,7.00
2019-03-02T15:53:21.611Z,7.00
2019-03-02T15:55:55.332Z,7.00
2019-03-02T16:01:12.596Z,6.90
2019-03-02T16:04:03.307Z,6.90
2019-03-02T16:09:28.979Z,6.80
2019-03-02T16:11:59.243Z,6.80
2019-03-02T16:22:33.242Z,6.80
2019-03-02T16:25:15.594Z,6.70
2019-03-02T16:28:05.569Z,6.80
2019-03-02T16:30:39.297Z,6.80
2019-03-02T16:36:12.965Z,6.70
2019-03-02T16:38:48.114Z,6.70
2019-03-02T16:44:03.221Z,6.70
2019-03-02T16:46:38.483Z,6.70
2019-03-02T16:49:14.541Z,6.60
2019-03-02T16:52:02.337Z,6.60
2019-03-02T16:54:56.848Z,6.50
2019-03-02T16:57:30.690Z,6.50
2019-03-02T17:00:20.805Z,6.50
2019-03-02T17:10:33.006Z,6.40
2019-03-02T17:26:15.707Z,6.40
2019-03-02T17:34:17.998Z,6.30
2019-03-02T17:47:26.688Z,6.20
2019-03-02T18:03:32.486Z,6.10
2019-03-02T18:06:06.353Z,6.00
2019-03-02T18:19:23.278Z,6.00
2019-03-02T18:29:34.293Z,6.00
2019-03-02T18:37:06.245Z,6.10
2019-03-02T18:54:49.295Z,6.10
2019-03-02T19:02:20.328Z,6.00
2019-03-02T19:27:21.690Z,5.50
2019-03-02T19:29:51.832Z,5.40
2019-03-02T19:37:41.041Z,5.40
2019-03-02T19:43:00.796Z,5.50
2019-03-02T19:50:31.482Z,5.60
2019-03-02T19:55:43.182Z,5.60
2019-03-02T19:58:15.319Z,5.60
2019-03-02T20:03:26.011Z,5.60
2019-03-02T20:05:58.125Z,5.60
2019-03-02T20:28:41.357Z,5.50
2019-03-02T20:36:13.975Z,5.70
2019-03-02T20:38:45.089Z,5.80
2019-03-02T20:41:15.193Z,5.80
2019-03-02T20:43:45.321Z,5.90
2019-03-02T20:51:21.917Z,6.10
2019-03-02T20:56:24.072Z,6.10
2019-03-02T21:01:26.917Z,6.10
2019-03-02T21:11:36.214Z,6.20
2019-03-02T21:19:07.790Z,6.20
2019-03-02T21:21:37.913Z,6.10
2019-03-02T21:24:09.613Z,6.10
2019-03-02T21:29:16.537Z,6.00
2019-03-02T21:31:46.901Z,6.00
2019-03-02T21:34:26.155Z,6.00
2019-03-02T21:36:56.533Z,6.00
2019-03-02T21:41:57.278Z,6.00
2019-03-02T21:46:58.035Z,6.10
2019-03-02T21:54:30.591Z,6.10
2019-03-02T21:57:00.733Z,6.10
2019-03-02T22:02:00.553Z,6.10
2019-03-02T22:09:35.245Z,6.20
2019-03-02T22:19:44.213Z,6.20
2019-03-02T22:24:48.118Z,6.30
2019-03-02T22:29:48.829Z,6.30
2019-03-02T22:42:26.537Z,6.40
2019-03-02T22:49:57.241Z,6.50
2019-03-02T23:00:29.298Z,6.60
2019-03-02T23:05:30.093Z,6.60
2019-03-02T23:08:03.466Z,6.60
2019-03-02T23:10:33.535Z,6.60
2019-03-02T23:18:12.261Z,6.70
2019-03-02T23:20:42.361Z,6.70
2019-03-02T23:30:55.912Z,6.80
2019-03-02T23:35:58.106Z,6.90
2019-03-02T23:41:00.927Z,6.90
2019-03-02T23:43:31.032Z,6.90
2019-03-02T23:46:01.122Z,7.00
2019-03-02T23:53:32.699Z,6.90
